createdAt,value
2018-09-26T00:00:46.313Z,3.30
2018-09-26T00:03:18.479Z,3.07
2018-09-26T00:05:46.870Z,4.23
2018-09-26T00:08:14.959Z,2.97
2018-09-26T00:10:44.853Z,2.77
2018-09-26T00:13:12.975Z,2.63
2018-09-26T00:15:41.171Z,3.00
2018-09-26T00:18:09.252Z,3.23
2018-09-26T00:20:37.375Z,2.90
2018-09-26T00:23:05.467Z,4.17
2018-09-26T00:25:33.924Z,3.90
2018-09-26T00:28:03.067Z,2.87
2018-09-26T00:30:31.154Z,3.00
2018-09-26T00:32:59.383Z,2.43
2018-09-26T00:35:27.815Z,3.23
2018-09-26T00:37:55.915Z,2.57
2018-09-26T00:40:24.058Z,3.00
2018-09-26T00:42:52.214Z,2.67
2018-09-26T00:45:20.299Z,2.83
2018-09-26T00:47:48.401Z,2.80
2018-09-26T00:50:16.738Z,2.40
2018-09-26T00:52:45.299Z,2.40
2018-09-26T00:55:13.680Z,3.00
2018-09-26T00:57:42.081Z,2.73
2018-09-26T01:00:10.409Z,2.67
2018-09-26T01:02:38.797Z,2.80
2018-09-26T01:05:07.149Z,2.77
2018-09-26T01:07:35.480Z,3.90
2018-09-26T01:10:03.841Z,4.53
2018-09-26T01:12:32.186Z,2.90
2018-09-26T01:15:00.552Z,3.80
2018-09-26T01:17:29.301Z,6.47
2018-09-26T01:19:57.653Z,3.47
2018-09-26T01:22:26.008Z,4.40
2018-09-26T01:24:54.332Z,4.53
2018-09-26T01:27:22.666Z,4.60
2018-09-26T01:29:51.004Z,5.17
2018-09-26T01:32:19.348Z,3.97
2018-09-26T01:34:47.711Z,4.33
2018-09-26T01:37:16.657Z,3.57
2018-09-26T01:39:44.986Z,4.23
2018-09-26T01:42:13.346Z,3.70
2018-09-26T01:44:41.688Z,2.87
2018-09-26T01:47:10.030Z,3.23
2018-09-26T01:49:38.613Z,3.40
2018-09-26T01:52:07.044Z,3.27
2018-09-26T01:54:35.370Z,2.90
2018-09-26T01:57:03.746Z,2.50
2018-09-26T01:59:32.112Z,2.77
2018-09-26T02:02:00.489Z,2.50
2018-09-26T02:04:28.852Z,2.70
2018-09-26T02:06:57.231Z,2.33
2018-09-26T02:09:25.639Z,2.33
2018-09-26T02:11:53.982Z,2.77
2018-09-26T02:14:22.292Z,2.20
2018-09-26T02:16:51.285Z,2.30
2018-09-26T02:19:19.657Z,2.17
2018-09-26T02:21:48.021Z,2.30
2018-09-26T02:24:16.388Z,2.30
2018-09-26T02:26:44.757Z,2.10
2018-09-26T02:29:13.089Z,2.33
2018-09-26T02:31:41.447Z,2.33
2018-09-26T02:34:09.780Z,2.27
2018-09-26T02:36:38.108Z,2.10
2018-09-26T02:39:07.783Z,2.23
2018-09-26T02:41:36.135Z,2.03
2018-09-26T02:44:04.533Z,1.97
2018-09-26T02:46:32.941Z,2.10
2018-09-26T02:49:07.115Z,2.10
2018-09-26T02:51:37.670Z,1.90
2018-09-26T02:54:06.789Z,1.97
2018-09-26T02:56:35.187Z,2.10
2018-09-26T02:59:03.571Z,2.30
2018-09-26T03:01:31.932Z,1.87
2018-09-26T03:04:00.290Z,2.07
2018-09-26T03:06:28.650Z,2.30
2018-09-26T03:08:56.963Z,2.43
2018-09-26T03:11:25.352Z,2.27
2018-09-26T03:13:53.694Z,1.93
2018-09-26T03:16:22.096Z,1.97
2018-09-26T03:18:50.460Z,1.80
2018-09-26T03:21:18.785Z,2.07
2018-09-26T03:23:47.124Z,1.90
2018-09-26T03:26:16.209Z,2.33
2018-09-26T03:28:44.552Z,2.10
2018-09-26T03:31:12.916Z,2.00
2018-09-26T03:33:41.283Z,2.13
2018-09-26T03:36:09.665Z,1.83
2018-09-26T03:38:38.013Z,2.37
2018-09-26T03:41:06.386Z,2.20
2018-09-26T03:43:34.743Z,2.00
2018-09-26T03:46:03.278Z,2.10
2018-09-26T03:48:31.610Z,2.30
2018-09-26T03:51:00.593Z,2.80
2018-09-26T03:53:28.932Z,2.20
2018-09-26T03:55:57.296Z,2.10
2018-09-26T03:58:25.644Z,2.30
2018-09-26T04:00:54.205Z,2.90
2018-09-26T04:03:22.583Z,2.60
2018-09-26T04:05:50.965Z,2.53
2018-09-26T04:08:19.349Z,2.53
2018-09-26T04:10:47.681Z,3.20
2018-09-26T04:13:16.043Z,3.00
2018-09-26T04:15:48.885Z,3.10
2018-09-26T04:18:17.297Z,3.50
2018-09-26T04:20:45.626Z,3.00
2018-09-26T04:23:14.343Z,4.10
2018-09-26T04:25:42.747Z,3.47
2018-09-26T04:28:11.355Z,3.70
2018-09-26T04:30:39.716Z,3.90
2018-09-26T04:33:08.589Z,3.67
2018-09-26T04:35:36.790Z,4.50
2018-09-26T04:38:05.124Z,4.53
2018-09-26T04:40:33.463Z,4.50
2018-09-26T04:43:01.913Z,4.63
2018-09-26T04:45:31.071Z,4.90
2018-09-26T04:47:59.512Z,4.40
2018-09-26T04:50:27.916Z,4.57
2018-09-26T04:52:56.254Z,4.53
2018-09-26T04:55:24.820Z,3.70
2018-09-26T04:57:53.302Z,4.67
2018-09-26T05:00:21.549Z,4.37
2018-09-26T05:02:49.896Z,4.07
2018-09-26T05:05:18.492Z,4.63
2018-09-26T05:07:46.839Z,4.40
2018-09-26T05:10:15.181Z,4.33
2018-09-26T05:12:43.568Z,4.73
2018-09-26T05:15:11.902Z,3.87
2018-09-26T05:17:40.320Z,4.20
2018-09-26T05:20:08.636Z,3.80
2018-09-26T05:22:37.386Z,4.13
2018-09-26T05:25:06.480Z,3.40
2018-09-26T05:27:34.904Z,4.43
2018-09-26T05:30:03.269Z,3.83
2018-09-26T05:32:31.839Z,3.67
2018-09-26T05:35:00.913Z,3.97
2018-09-26T05:37:29.288Z,3.90
2018-09-26T05:39:57.690Z,3.43
2018-09-26T05:42:26.051Z,3.87
2018-09-26T05:44:54.450Z,3.80
2018-09-26T05:47:22.843Z,3.47
2018-09-26T05:49:51.172Z,3.30
2018-09-26T05:52:19.525Z,3.07
2018-09-26T05:54:47.904Z,3.27
2018-09-26T05:57:24.115Z,3.07
2018-09-26T05:59:52.502Z,3.33
2018-09-26T06:02:20.874Z,2.90
2018-09-26T06:04:49.231Z,3.00
2018-09-26T06:07:17.590Z,3.53
2018-09-26T06:09:45.987Z,2.90
2018-09-26T06:12:14.385Z,3.10
2018-09-26T06:14:43.149Z,2.90
2018-09-26T06:17:11.508Z,3.00
2018-09-26T06:19:39.895Z,2.77
2018-09-26T06:22:08.280Z,3.43
2018-09-26T06:24:36.642Z,2.77
2018-09-26T06:27:05.321Z,3.50
2018-09-26T06:29:33.664Z,3.00
2018-09-26T06:32:02.057Z,2.93
2018-09-26T06:34:30.381Z,3.30
2018-09-26T06:36:58.708Z,3.13
2018-09-26T06:39:27.092Z,3.50
2018-09-26T06:41:55.482Z,2.90
2018-09-26T06:44:23.909Z,3.27
2018-09-26T06:46:52.283Z,3.30
2018-09-26T06:49:20.644Z,2.97
2018-09-26T06:51:49.052Z,3.13
2018-09-26T06:54:23.897Z,3.27
2018-09-26T06:56:52.276Z,2.87
2018-09-26T06:59:20.638Z,3.20
2018-09-26T07:01:49.064Z,3.60
2018-09-26T07:04:17.536Z,2.83
2018-09-26T07:06:45.917Z,3.00
2018-09-26T07:09:14.269Z,3.13
2018-09-26T07:11:42.628Z,3.07
2018-09-26T07:14:11.132Z,3.90
2018-09-26T07:16:39.860Z,2.93
2018-09-26T07:19:08.237Z,3.20
2018-09-26T07:21:36.613Z,2.90
2018-09-26T07:24:05.222Z,3.30
2018-09-26T07:26:33.628Z,3.13
2018-09-26T07:29:02.195Z,2.83
2018-09-26T07:31:30.586Z,3.57
2018-09-26T07:33:59.024Z,3.13
2018-09-26T07:36:27.444Z,3.83
2018-09-26T07:38:55.912Z,3.27
2018-09-26T07:41:24.691Z,3.10
2018-09-26T07:43:53.028Z,3.20
2018-09-26T07:46:21.442Z,3.20
2018-09-26T07:48:49.875Z,3.00
2018-09-26T07:51:18.312Z,3.30
2018-09-26T07:53:47.404Z,2.83
2018-09-26T07:56:15.888Z,3.00
2018-09-26T07:58:45.112Z,2.77
2018-09-26T08:01:13.483Z,2.90
2018-09-26T08:03:41.960Z,2.70
2018-09-26T08:06:10.464Z,2.70
2018-09-26T08:08:39.435Z,2.70
2018-09-26T08:11:09.066Z,2.50
2018-09-26T08:13:37.576Z,2.90
2018-09-26T08:16:06.000Z,2.80
2018-09-26T08:18:34.390Z,2.23
2018-09-26T08:21:02.848Z,2.20
2018-09-26T08:23:31.168Z,2.80
2018-09-26T08:25:59.535Z,2.60
2018-09-26T08:28:27.888Z,2.80
2018-09-26T08:30:56.255Z,2.43
2018-09-26T08:33:24.609Z,2.70
2018-09-26T08:35:53.109Z,2.47
2018-09-26T08:38:21.478Z,2.97
2018-09-26T08:40:49.882Z,2.90
2018-09-26T08:43:18.253Z,2.60
2018-09-26T08:45:46.686Z,2.47
2018-09-26T08:48:15.476Z,2.30
2018-09-26T08:50:43.840Z,2.40
2018-09-26T08:53:12.159Z,2.17
2018-09-26T08:55:41.017Z,2.20
2018-09-26T08:58:09.471Z,2.27
2018-09-26T09:00:38.235Z,1.93
2018-09-26T09:03:07.745Z,2.17
2018-09-26T09:05:36.614Z,1.93
2018-09-26T09:08:05.942Z,2.30
2018-09-26T09:10:34.331Z,2.60
2018-09-26T09:13:02.533Z,2.83
2018-09-26T09:15:35.698Z,2.37
2018-09-26T09:18:12.500Z,2.60
2018-09-26T09:20:40.658Z,2.30
2018-09-26T09:23:08.758Z,2.47
2018-09-26T09:25:36.906Z,2.40
2018-09-26T09:28:05.099Z,2.67
2018-09-26T09:30:33.251Z,2.43
2018-09-26T09:33:01.389Z,2.67
2018-09-26T09:35:29.523Z,2.60
2018-09-26T09:37:57.638Z,2.20
2018-09-26T09:40:25.825Z,2.10
2018-09-26T09:42:53.911Z,2.10
2018-09-26T09:45:22.216Z,1.90
2018-09-26T09:47:51.110Z,2.03
2018-09-26T09:50:19.238Z,2.27
2018-09-26T09:52:47.348Z,1.73
2018-09-26T09:55:15.470Z,1.70
2018-09-26T09:57:43.571Z,2.30
2018-09-26T10:00:11.669Z,1.80
2018-09-26T10:02:40.120Z,1.80
2018-09-26T10:05:08.191Z,2.20
2018-09-26T10:07:36.319Z,2.13
2018-09-26T10:10:04.416Z,1.73
2018-09-26T10:12:32.564Z,2.10
2018-09-26T10:15:00.647Z,1.90
2018-09-26T10:17:30.643Z,1.97
2018-09-26T10:19:58.769Z,2.10
2018-09-26T10:22:26.867Z,2.10
2018-09-26T10:24:54.977Z,2.10
2018-09-26T10:27:23.116Z,2.17
2018-09-26T10:29:51.260Z,1.70
2018-09-26T10:32:19.421Z,1.80
2018-09-26T10:34:47.622Z,2.23
2018-09-26T10:37:15.770Z,1.93
2018-09-26T10:39:43.914Z,2.57
2018-09-26T10:42:12.101Z,1.90
2018-09-26T10:44:40.198Z,1.63
2018-09-26T10:47:08.317Z,1.40
2018-09-26T10:49:36.432Z,1.90
2018-09-26T10:52:04.523Z,1.90
2018-09-26T10:54:32.607Z,1.77
2018-09-26T10:57:00.737Z,1.90
2018-09-26T10:59:28.834Z,1.80
2018-09-26T11:01:56.987Z,1.93
2018-09-26T11:04:25.429Z,2.00
2018-09-26T11:06:54.018Z,1.60
2018-09-26T11:09:22.376Z,1.40
2018-09-26T11:11:50.752Z,1.60
2018-09-26T11:14:19.274Z,1.60
2018-09-26T11:16:47.613Z,1.50
2018-09-26T11:19:16.187Z,1.90
2018-09-26T11:21:47.578Z,1.80
2018-09-26T11:24:15.960Z,1.63
2018-09-26T11:26:44.423Z,1.83
2018-09-26T11:29:12.832Z,1.77
2018-09-26T11:31:41.231Z,1.73
2018-09-26T11:34:09.627Z,1.80
2018-09-26T11:36:38.251Z,1.60
2018-09-26T11:39:08.440Z,1.60
2018-09-26T11:41:36.828Z,1.67
2018-09-26T11:44:05.340Z,2.00
2018-09-26T11:46:33.889Z,1.70
2018-09-26T11:49:02.470Z,1.77
2018-09-26T11:51:30.874Z,1.90
2018-09-26T11:53:59.442Z,1.60
2018-09-26T11:56:27.887Z,1.80
2018-09-26T11:58:56.236Z,1.83
2018-09-26T12:01:24.588Z,2.03
2018-09-26T12:03:52.981Z,1.63
2018-09-26T12:06:21.483Z,2.43
2018-09-26T12:08:49.831Z,2.23
2018-09-26T12:11:18.199Z,1.93
2018-09-26T12:13:46.617Z,1.60
2018-09-26T12:16:14.991Z,1.90
2018-09-26T12:18:43.317Z,1.87
2018-09-26T12:21:11.732Z,2.13
2018-09-26T12:23:40.072Z,2.33
2018-09-26T12:26:08.477Z,2.30
2018-09-26T12:28:36.832Z,2.43
2018-09-26T12:31:05.234Z,1.70
2018-09-26T12:33:33.601Z,1.63
2018-09-26T12:36:01.994Z,2.70
2018-09-26T12:38:30.327Z,2.30
2018-09-26T12:40:58.733Z,2.00
2018-09-26T12:43:27.678Z,2.27
2018-09-26T12:45:56.459Z,2.93
2018-09-26T12:48:25.106Z,2.30
2018-09-26T12:50:53.623Z,2.63
2018-09-26T12:53:22.182Z,2.63
2018-09-26T12:55:50.510Z,2.10
2018-09-26T12:58:19.236Z,2.53
2018-09-26T13:00:47.423Z,3.10
2018-09-26T13:03:15.657Z,1.80
2018-09-26T13:05:44.359Z,1.90
2018-09-26T13:08:12.470Z,2.23
2018-09-26T13:10:40.855Z,2.13
2018-09-26T13:13:09.216Z,2.00
2018-09-26T13:15:37.956Z,2.33
2018-09-26T13:18:06.371Z,2.00
2018-09-26T13:20:34.854Z,2.23
2018-09-26T13:23:03.941Z,1.90
2018-09-26T13:25:32.436Z,2.03
2018-09-26T13:28:01.117Z,1.97
2018-09-26T13:30:29.472Z,1.80
2018-09-26T13:32:57.897Z,2.70
2018-09-26T13:35:26.277Z,1.97
2018-09-26T13:37:54.703Z,2.20
2018-09-26T13:40:22.907Z,2.33
2018-09-26T13:42:51.003Z,2.20
2018-09-26T13:45:19.113Z,1.90
2018-09-26T13:47:47.322Z,2.00
2018-09-26T13:50:15.585Z,1.80
2018-09-26T13:52:43.669Z,2.20
2018-09-26T13:55:11.801Z,1.90
2018-09-26T13:57:39.966Z,2.40
2018-09-26T14:00:08.482Z,3.03
2018-09-26T14:02:37.045Z,2.83
2018-09-26T14:05:05.699Z,2.57
2018-09-26T14:07:33.872Z,2.13
2018-09-26T14:10:02.480Z,2.03
2018-09-26T14:12:30.759Z,2.17
2018-09-26T14:14:58.908Z,2.10
2018-09-26T14:17:27.191Z,2.23
2018-09-26T14:19:55.339Z,1.80
2018-09-26T14:22:23.573Z,2.60
2018-09-26T14:24:51.659Z,2.20
2018-09-26T14:27:19.834Z,2.40
2018-09-26T14:29:48.061Z,2.30
2018-09-26T14:32:16.307Z,2.20
2018-09-26T14:34:44.465Z,2.63
2018-09-26T14:37:12.662Z,2.30
2018-09-26T14:39:41.228Z,2.17
2018-09-26T14:42:09.869Z,2.33
2018-09-26T14:44:37.992Z,2.10
2018-09-26T14:47:06.915Z,2.10
2018-09-26T14:49:35.059Z,2.17
2018-09-26T14:52:03.151Z,2.03
2018-09-26T14:54:31.388Z,1.70
2018-09-26T14:56:59.584Z,2.17
2018-09-26T14:59:27.691Z,1.73
2018-09-26T15:01:55.804Z,1.93
2018-09-26T15:04:24.001Z,2.00
2018-09-26T15:06:52.169Z,2.20
2018-09-26T15:09:20.604Z,2.33
2018-09-26T15:11:48.843Z,2.10
2018-09-26T15:14:17.126Z,1.97
2018-09-26T15:16:45.246Z,2.07
2018-09-26T15:19:13.738Z,2.10
2018-09-26T15:21:41.900Z,2.20
2018-09-26T15:24:10.084Z,1.90
2018-09-26T15:26:38.210Z,1.80
2018-09-26T15:29:06.415Z,2.03
2018-09-26T15:31:34.591Z,1.70
2018-09-26T15:34:02.710Z,1.90
2018-09-26T15:36:30.828Z,2.00
2018-09-26T15:38:59.041Z,1.70
2018-09-26T15:41:27.303Z,1.80
2018-09-26T15:43:55.413Z,2.43
2018-09-26T15:46:23.620Z,2.93
2018-09-26T15:48:51.739Z,2.30
2018-09-26T15:51:19.968Z,3.50
2018-09-26T15:53:48.190Z,2.03
2018-09-26T15:56:16.445Z,2.37
2018-09-26T15:58:44.604Z,2.47
2018-09-26T16:01:12.799Z,2.70
2018-09-26T16:03:40.936Z,2.43
2018-09-26T16:06:09.138Z,2.87
2018-09-26T16:08:37.955Z,2.47
2018-09-26T16:11:06.132Z,2.90
2018-09-26T16:13:34.383Z,2.03
2018-09-26T16:16:02.996Z,2.20
2018-09-26T16:18:31.291Z,2.50
2018-09-26T16:20:59.561Z,2.50
2018-09-26T16:23:27.756Z,2.30
2018-09-26T16:25:55.895Z,2.70
2018-09-26T16:28:24.142Z,2.50
2018-09-26T16:30:52.923Z,3.27
2018-09-26T16:33:21.078Z,2.67
2018-09-26T16:35:49.196Z,2.40
2018-09-26T16:38:17.339Z,2.27
2018-09-26T16:40:45.520Z,2.20
2018-09-26T16:43:13.651Z,2.03
2018-09-26T16:45:42.875Z,2.10
2018-09-26T16:48:11.112Z,2.33
2018-09-26T16:50:39.216Z,3.07
2018-09-26T16:53:07.348Z,3.30
2018-09-26T16:55:35.468Z,3.13
2018-09-26T16:58:03.595Z,3.70
2018-09-26T17:00:31.738Z,3.93
2018-09-26T17:02:59.849Z,4.60
2018-09-26T17:05:27.998Z,3.23
2018-09-26T17:07:56.651Z,3.13
2018-09-26T17:10:24.871Z,3.13
2018-09-26T17:12:52.933Z,3.13
2018-09-26T17:15:21.064Z,2.90
2018-09-26T17:17:49.175Z,2.87
2018-09-26T17:20:17.796Z,3.03
2018-09-26T17:22:45.929Z,3.50
2018-09-26T17:25:14.040Z,3.30
2018-09-26T17:27:42.371Z,2.93
2018-09-26T17:30:10.527Z,2.87
2018-09-26T17:32:38.662Z,3.03
2018-09-26T17:35:06.916Z,2.80
2018-09-26T17:37:35.194Z,3.60
2018-09-26T17:40:03.355Z,3.70
2018-09-26T17:42:31.476Z,3.80
2018-09-26T17:44:59.626Z,3.30
2018-09-26T17:47:27.813Z,4.00
2018-09-26T17:49:56.036Z,3.80
2018-09-26T17:52:24.240Z,3.93
2018-09-26T17:54:52.309Z,4.23
2018-09-26T17:57:21.072Z,4.37
2018-09-26T17:59:49.798Z,3.90
2018-09-26T18:02:17.889Z,3.30
2018-09-26T18:04:46.065Z,3.13
2018-09-26T18:07:14.672Z,3.27
2018-09-26T18:09:42.831Z,3.20
2018-09-26T18:12:11.109Z,3.50
2018-09-26T18:14:39.451Z,3.50
2018-09-26T18:17:08.287Z,4.30
2018-09-26T18:19:36.382Z,3.67
2018-09-26T18:22:05.402Z,5.20
2018-09-26T18:24:34.190Z,3.27
2018-09-26T18:27:02.460Z,3.53
2018-09-26T18:29:31.648Z,3.07
2018-09-26T18:32:00.995Z,3.30
2018-09-26T18:34:31.627Z,3.10
2018-09-26T18:37:00.375Z,2.93
2018-09-26T18:39:29.077Z,3.30
2018-09-26T18:41:57.820Z,3.03
2018-09-26T18:44:26.886Z,2.67
2018-09-26T18:46:55.823Z,3.13
2018-09-26T18:49:24.229Z,3.10
2018-09-26T18:51:52.448Z,3.20
2018-09-26T18:54:20.555Z,2.63
2018-09-26T18:56:48.769Z,2.50
2018-09-26T18:59:17.032Z,2.73
2018-09-26T19:01:45.195Z,2.27
2018-09-26T19:04:14.011Z,2.50
2018-09-26T19:06:42.152Z,2.30
2018-09-26T19:09:15.842Z,2.40
2018-09-26T19:11:43.961Z,2.40
2018-09-26T19:14:12.165Z,2.73
2018-09-26T19:16:40.384Z,3.07
2018-09-26T19:19:08.841Z,3.00
2018-09-26T19:21:37.036Z,3.17
2018-09-26T19:24:05.189Z,2.53
2018-09-26T19:26:33.385Z,2.80
2018-09-26T19:29:01.520Z,2.40
2018-09-26T19:31:29.627Z,2.40
2018-09-26T19:33:57.787Z,2.30
2018-09-26T19:36:26.001Z,2.50
2018-09-26T19:38:54.113Z,1.90
2018-09-26T19:41:22.228Z,2.20
2018-09-26T19:43:50.517Z,2.67
2018-09-26T19:46:18.745Z,2.30
2018-09-26T19:48:46.864Z,2.07
2018-09-26T19:51:14.997Z,2.07
2018-09-26T19:53:43.247Z,2.67
2018-09-26T19:56:12.635Z,2.30
2018-09-26T19:58:40.825Z,2.37
2018-09-26T20:01:08.976Z,2.07
2018-09-26T20:03:37.234Z,2.00
2018-09-26T20:06:05.389Z,2.40
2018-09-26T20:08:33.563Z,2.40
2018-09-26T20:11:02.449Z,1.93
2018-09-26T20:13:34.045Z,2.17
2018-09-26T20:16:02.223Z,2.30
2018-09-26T20:18:31.363Z,1.90
2018-09-26T20:21:13.508Z,2.40
2018-09-26T20:23:41.734Z,2.57
2018-09-26T20:26:09.918Z,2.00
2018-09-26T20:28:38.143Z,2.47
2018-09-26T20:31:06.564Z,2.70
2018-09-26T20:33:34.679Z,4.30
2018-09-26T20:36:03.392Z,2.43
2018-09-26T20:38:31.473Z,6.50
2018-09-26T20:40:59.582Z,5.13
2018-09-26T20:43:27.831Z,2.43
2018-09-26T20:45:55.991Z,2.37
2018-09-26T20:48:24.185Z,2.60
2018-09-26T20:50:53.262Z,2.50
2018-09-26T20:53:21.342Z,1.80
2018-09-26T20:55:49.516Z,2.37
2018-09-26T20:58:17.626Z,2.20
2018-09-26T21:00:45.703Z,1.97
2018-09-26T21:03:13.770Z,1.50
2018-09-26T21:05:41.873Z,2.30
2018-09-26T21:08:09.934Z,2.00
2018-09-26T21:10:38.098Z,2.10
2018-09-26T21:13:06.493Z,1.70
2018-09-26T21:15:34.633Z,1.73
2018-09-26T21:18:02.735Z,1.90
2018-09-26T21:20:30.843Z,1.93
2018-09-26T21:22:59.030Z,1.87
2018-09-26T21:25:27.144Z,1.90
2018-09-26T21:27:55.495Z,2.23
2018-09-26T21:30:23.673Z,2.27
2018-09-26T21:32:51.816Z,1.97
2018-09-26T21:35:20.073Z,1.70
2018-09-26T21:37:48.367Z,1.97
2018-09-26T21:40:17.423Z,1.97
2018-09-26T21:42:45.593Z,2.60
2018-09-26T21:45:13.855Z,2.13
2018-09-26T21:50:16.585Z,2.07
2018-09-26T21:52:44.678Z,2.20
2018-09-26T21:55:12.829Z,1.70
2018-09-26T21:57:40.903Z,1.80
2018-09-26T22:00:09.078Z,2.23
2018-09-26T22:02:37.224Z,1.60
2018-09-26T22:05:05.440Z,1.93
2018-09-26T22:07:33.575Z,1.83
2018-09-26T22:10:01.671Z,2.00
2018-09-26T22:12:29.749Z,1.83
2018-09-26T22:15:04.579Z,1.60
2018-09-26T22:17:33.030Z,2.20
2018-09-26T22:20:01.661Z,2.00
2018-09-26T22:22:29.923Z,1.90
2018-09-26T22:24:58.082Z,1.90
2018-09-26T22:27:26.199Z,1.67
2018-09-26T22:29:54.478Z,1.77
2018-09-26T22:32:22.595Z,2.07
2018-09-26T22:34:50.723Z,2.10
2018-09-26T22:37:18.825Z,2.63
2018-09-26T22:39:46.998Z,1.77
2018-09-26T22:42:15.189Z,2.33
2018-09-26T22:44:43.391Z,2.37
2018-09-26T22:47:11.524Z,2.07
2018-09-26T22:49:39.694Z,1.87
2018-09-26T22:52:07.864Z,2.03
2018-09-26T22:54:36.651Z,1.93
2018-09-26T22:57:04.761Z,2.00
2018-09-26T22:59:32.950Z,1.90
2018-09-26T23:02:01.023Z,2.07
2018-09-26T23:04:29.127Z,1.77
2018-09-26T23:06:57.935Z,2.20
2018-09-26T23:09:26.114Z,2.17
2018-09-26T23:11:54.227Z,1.87
2018-09-26T23:14:22.280Z,1.90
2018-09-26T23:16:50.370Z,2.10
2018-09-26T23:19:18.500Z,2.27
2018-09-26T23:21:46.587Z,2.43
2018-09-26T23:24:14.665Z,2.17
2018-09-26T23:26:42.832Z,2.23
2018-09-26T23:29:10.915Z,2.10
2018-09-26T23:31:38.975Z,2.33
2018-09-26T23:34:07.049Z,2.13
2018-09-26T23:36:35.132Z,2.33
2018-09-26T23:39:03.239Z,2.40
2018-09-26T23:41:31.434Z,2.07
2018-09-26T23:43:59.564Z,2.20
2018-09-26T23:46:27.666Z,2.07
2018-09-26T23:48:55.767Z,2.33
2018-09-26T23:51:23.818Z,2.17
2018-09-26T23:53:51.898Z,2.07
2018-09-26T23:56:19.975Z,1.90
2018-09-26T23:58:48.040Z,2.17
